Flint, TX (75762)

4:16 PM CST on January 18, 2017 (GMT -0600)
Rose City Aviation Services | | Change Station
Active Advisory: Flood Warning

Elev 443 ft 32.19 °N, 95.31 °W | Updated 38 seconds ago

Overcast
Overcast
56.5 °F
Feels Like 56.5 °F
N
0.0
Wind Variable Wind from SSW

Today
High -- | Low -- °F
--% Chance of Precip.
Yesterday
High -- | Low -- °F
Precip. -- in
Pressure 30.00 in
Visibility 0.5 miles
Clouds Overcast 200 ft
Dew Point 56 °F
Humidity 98%
Rainfall 2.67 in
Snow Depth Not available.
7:21 AM 5:42 PM
Waning Gibbous, 60% visible
SPECI KTYR 182200Z 32009KT 1/2SM FG OVC002 12/12 A3000 RMK AO2 T01170117
Pressure 30.00 in
Visibility 0.5 miles
Clouds Overcast 200 ft
Dew Point 56 °F
Humidity 98%
Rainfall 2.67 in
Snow Depth Not available.
7:21 AM 5:42 PM
Waning Gibbous, 60% visible
SPECI KTYR 182200Z 32009KT 1/2SM FG OVC002 12/12 A3000 RMK AO2 T01170117

Get Your Daily Forecast Email!

Thanks for signing up!

Be on the lookout for a verification email in your inbox.

You'll start receiving the daily forecast at 8 AM.

×

10-Day Weather Forecast

Almanac

Astronomy

Jan. 18, 2017 Rise Set
Actual Time
Civil Twilight
Nautical Twilight
Astronomical Twilight
Moon
Length of Visible Light
Length of Day
Tomorrow will be .
, % of the Moon is Illuminated

Today's Extremes

State Highs State Lows

Community

WunderPhotos

Upload Photos

1,962,540 photos uploaded!

WunderBlog® & News

Nearby

Air Quality

  Air Quality AQ Index Pollutant
Not available.

Snow Depth

Station Depth Elevation

Earthquake Activity

City Distance Mag. Time & Date
Minimum magnitude displayed is 2.5.

Coastal Water Temperatures

Place Temperature

Stations

Nearby Weather Stations

Station Location Temp. Windchill Dew Point Humidity Wind Precip. Elev Updated Type
                   

Watches & Warnings

Flood Warning
Issued: 1:51 PM CST Jan. 18, 2017 – National Weather Service

The National Weather Service in Shreveport has issued a

* Flood Warning for
the Sabine River near Mineola, Texas.
* From late tonight to late Friday night... or until the warning is
cancelled.
* At 115 PM Wednesday the stage was 12.5 feet.
* Minor flooding is forecast.
* Flood stage is 14 feet.
* Forecast... rise above flood stage by early Thursday morning and
continue to rise to near 14.5 feet by early Friday morning. The
river will fall below flood stage by late Friday morning.
* Impact... minor lowland flooding.


Lat... Lon 3278 9574 3263 9535 3257 9535 3259 9550 3273 9574


Viii.